sensor_id;sensor_type;location;lat;lon;timestamp;P1;durP1;ratioP1;P2;durP2;ratioP2
10641;SDS011;5369;49.586;8.646;2022-12-18T00:01:39;66.57;;;29.40;;
10641;SDS011;5369;49.586;8.646;2022-12-18T00:04:06;80.43;;;34.07;;
10641;SDS011;5369;49.586;8.646;2022-12-18T00:06:33;65.53;;;30.73;;
10641;SDS011;5369;49.586;8.646;2022-12-18T00:09:01;68.97;;;30.53;;
10641;SDS011;5369;49.586;8.646;2022-12-18T00:11:28;61.87;;;28.20;;
10641;SDS011;5369;49.586;8.646;2022-12-18T00:13:55;80.00;;;32.87;;
10641;SDS011;5369;49.586;8.646;2022-12-18T00:16:22;75.07;;;31.23;;
10641;SDS011;5369;49.586;8.646;2022-12-18T00:18:51;74.17;;;32.07;;
10641;SDS011;5369;49.586;8.646;2022-12-18T00:21:18;69.37;;;30.10;;
10641;SDS011;5369;49.586;8.646;2022-12-18T00:23:45;68.57;;;30.30;;
10641;SDS011;5369;49.586;8.646;2022-12-18T00:26:13;80.37;;;33.20;;
10641;SDS011;5369;49.586;8.646;2022-12-18T00:28:41;75.80;;;32.20;;
10641;SDS011;5369;49.586;8.646;2022-12-18T00:31:08;78.23;;;32.67;;
10641;SDS011;5369;49.586;8.646;2022-12-18T00:33:35;76.03;;;37.72;;
10641;SDS011;5369;49.586;8.646;2022-12-18T00:38:28;70.93;;;35.45;;
10641;SDS011;5369;49.586;8.646;2022-12-18T00:40:54;70.13;;;33.27;;
10641;SDS011;5369;49.586;8.646;2022-12-18T00:43:20;70.90;;;31.50;;
10641;SDS011;5369;49.586;8.646;2022-12-18T00:45:47;69.70;;;30.97;;
10641;SDS011;5369;49.586;8.646;2022-12-18T00:48:13;72.53;;;30.93;;
10641;SDS011;5369;49.586;8.646;2022-12-18T00:50:39;69.00;;;29.87;;
10641;SDS011;5369;49.586;8.646;2022-12-18T00:53:05;72.73;;;31.73;;
10641;SDS011;5369;49.586;8.646;2022-12-18T00:55:35;67.43;;;30.03;;
10641;SDS011;5369;49.586;8.646;2022-12-18T00:58:02;66.60;;;29.83;;
10641;SDS011;5369;49.586;8.646;2022-12-18T01:00:29;71.17;;;30.83;;
10641;SDS011;5369;49.586;8.646;2022-12-18T01:02:55;61.07;;;28.70;;
10641;SDS011;5369;49.586;8.646;2022-12-18T01:05:21;65.37;;;28.30;;
10641;SDS011;5369;49.586;8.646;2022-12-18T01:07:47;66.80;;;32.88;;
10641;SDS011;5369;49.586;8.646;2022-12-18T01:10:13;61.67;;;28.77;;
10641;SDS011;5369;49.586;8.646;2022-12-18T01:12:40;58.97;;;27.73;;
10641;SDS011;5369;49.586;8.646;2022-12-18T01:15:12;66.07;;;28.70;;
10641;SDS011;5369;49.586;8.646;2022-12-18T01:17:39;61.10;;;27.50;;
10641;SDS011;5369;49.586;8.646;2022-12-18T01:20:05;66.10;;;27.97;;
10641;SDS011;5369;49.586;8.646;2022-12-18T01:22:31;57.57;;;26.70;;
10641;SDS011;5369;49.586;8.646;2022-12-18T01:24:59;57.43;;;27.63;;
10641;SDS011;5369;49.586;8.646;2022-12-18T01:27:26;53.77;;;25.27;;
10641;SDS011;5369;49.586;8.646;2022-12-18T01:29:52;58.37;;;27.53;;
10641;SDS011;5369;49.586;8.646;2022-12-18T01:32:19;62.70;;;28.33;;
10641;SDS011;5369;49.586;8.646;2022-12-18T01:34:45;62.37;;;27.50;;
10641;SDS011;5369;49.586;8.646;2022-12-18T01:37:11;61.43;;;27.80;;
10641;SDS011;5369;49.586;8.646;2022-12-18T01:39:37;62.13;;;29.37;;
10641;SDS011;5369;49.586;8.646;2022-12-18T01:42:05;63.33;;;29.17;;
10641;SDS011;5369;49.586;8.646;2022-12-18T01:47:22;62.27;;;28.80;;
10641;SDS011;5369;49.586;8.646;2022-12-18T01:49:50;65.33;;;28.43;;
10641;SDS011;5369;49.586;8.646;2022-12-18T01:52:16;78.77;;;31.80;;
10641;SDS011;5369;49.586;8.646;2022-12-18T01:54:43;55.83;;;25.97;;
10641;SDS011;5369;49.586;8.646;2022-12-18T01:57:09;58.90;;;27.70;;
10641;SDS011;5369;49.586;8.646;2022-12-18T01:59:35;89.25;;;32.42;;
10641;SDS011;5369;49.586;8.646;2022-12-18T02:02:02;62.90;;;29.60;;
10641;SDS011;5369;49.586;8.646;2022-12-18T02:04:29;68.63;;;30.37;;
10641;SDS011;5369;49.586;8.646;2022-12-18T02:07:13;66.60;;;28.07;;
10641;SDS011;5369;49.586;8.646;2022-12-18T02:09:59;72.27;;;30.87;;
10641;SDS011;5369;49.586;8.646;2022-12-18T02:12:28;69.73;;;29.97;;
10641;SDS011;5369;49.586;8.646;2022-12-18T02:15:12;71.77;;;30.20;;
10641;SDS011;5369;49.586;8.646;2022-12-18T02:17:47;61.93;;;27.27;;
10641;SDS011;5369;49.586;8.646;2022-12-18T02:20:20;62.03;;;27.83;;
10641;SDS011;5369;49.586;8.646;2022-12-18T02:28:06;68.80;;;30.10;;
10641;SDS011;5369;49.586;8.646;2022-12-18T02:30:33;62.60;;;28.37;;
10641;SDS011;5369;49.586;8.646;2022-12-18T02:33:01;68.03;;;30.93;;
10641;SDS011;5369;49.586;8.646;2022-12-18T02:35:30;59.87;;;28.43;;
10641;SDS011;5369;49.586;8.646;2022-12-18T02:37:58;58.40;;;26.87;;
10641;SDS011;5369;49.586;8.646;2022-12-18T02:40:28;61.40;;;27.67;;
10641;SDS011;5369;49.586;8.646;2022-12-18T02:43:02;64.17;;;28.50;;
10641;SDS011;5369;49.586;8.646;2022-12-18T02:45:28;64.40;;;29.03;;
10641;SDS011;5369;49.586;8.646;2022-12-18T02:47:54;73.57;;;31.40;;
10641;SDS011;5369;49.586;8.646;2022-12-18T02:50:34;59.60;;;28.20;;
10641;SDS011;5369;49.586;8.646;2022-12-18T02:53:18;63.57;;;28.27;;
10641;SDS011;5369;49.586;8.646;2022-12-18T02:56:08;67.70;;;29.00;;
10641;SDS011;5369;49.586;8.646;2022-12-18T03:04:25;62.67;;;27.87;;
10641;SDS011;5369;49.586;8.646;2022-12-18T03:06:56;67.80;;;29.73;;
10641;SDS011;5369;49.586;8.646;2022-12-18T03:09:31;60.23;;;27.83;;
10641;SDS011;5369;49.586;8.646;2022-12-18T03:12:02;59.50;;;27.80;;
10641;SDS011;5369;49.586;8.646;2022-12-18T03:14:49;64.63;;;27.97;;
10641;SDS011;5369;49.586;8.646;2022-12-18T03:17:17;66.17;;;27.50;;
10641;SDS011;5369;49.586;8.646;2022-12-18T03:19:46;61.83;;;28.90;;
10641;SDS011;5369;49.586;8.646;2022-12-18T03:22:13;65.33;;;29.00;;
10641;SDS011;5369;49.586;8.646;2022-12-18T03:24:47;55.37;;;26.63;;
10641;SDS011;5369;49.586;8.646;2022-12-18T03:27:14;63.00;;;28.20;;
10641;SDS011;5369;49.586;8.646;2022-12-18T03:29:48;54.90;;;25.23;;
10641;SDS011;5369;49.586;8.646;2022-12-18T03:32:25;56.87;;;26.43;;
10641;SDS011;5369;49.586;8.646;2022-12-18T03:34:53;59.27;;;25.83;;
10641;SDS011;5369;49.586;8.646;2022-12-18T03:37:21;61.90;;;27.57;;
10641;SDS011;5369;49.586;8.646;2022-12-18T03:39:47;63.17;;;27.83;;
10641;SDS011;5369;49.586;8.646;2022-12-18T03:47:30;58.50;;;25.93;;
10641;SDS011;5369;49.586;8.646;2022-12-18T03:50:45;63.00;;;26.83;;
10641;SDS011;5369;49.586;8.646;2022-12-18T03:55:21;61.60;;;26.73;;
10641;SDS011;5369;49.586;8.646;2022-12-18T03:57:53;56.57;;;26.60;;
10641;SDS011;5369;49.586;8.646;2022-12-18T04:00:20;60.63;;;27.57;;
10641;SDS011;5369;49.586;8.646;2022-12-18T04:03:01;65.10;;;28.03;;
10641;SDS011;5369;49.586;8.646;2022-12-18T04:05:34;58.70;;;27.60;;
10641;SDS011;5369;49.586;8.646;2022-12-18T04:08:02;62.73;;;27.63;;
10641;SDS011;5369;49.586;8.646;2022-12-18T04:10:32;62.00;;;27.67;;
10641;SDS011;5369;49.586;8.646;2022-12-18T04:13:01;64.47;;;27.67;;
10641;SDS011;5369;49.586;8.646;2022-12-18T04:15:28;64.53;;;28.23;;
10641;SDS011;5369;49.586;8.646;2022-12-18T04:17:56;65.07;;;30.07;;
10641;SDS011;5369;49.586;8.646;2022-12-18T04:20:27;61.87;;;28.17;;
10641;SDS011;5369;49.586;8.646;2022-12-18T04:22:53;57.63;;;27.07;;
10641;SDS011;5369;49.586;8.646;2022-12-18T04:25:20;62.33;;;27.73;;
10641;SDS011;5369;49.586;8.646;2022-12-18T04:27:56;55.70;;;26.10;;
10641;SDS011;5369;49.586;8.646;2022-12-18T04:30:22;56.93;;;25.10;;
10641;SDS011;5369;49.586;8.646;2022-12-18T04:32:48;63.33;;;26.70;;
10641;SDS011;5369;49.586;8.646;2022-12-18T04:35:15;69.47;;;29.27;;
10641;SDS011;5369;49.586;8.646;2022-12-18T04:37:43;61.50;;;26.10;;
10641;SDS011;5369;49.586;8.646;2022-12-18T04:40:09;61.93;;;27.00;;
10641;SDS011;5369;49.586;8.646;2022-12-18T04:42:40;57.23;;;27.10;;
10641;SDS011;5369;49.586;8.646;2022-12-18T04:45:06;59.90;;;26.83;;
10641;SDS011;5369;49.586;8.646;2022-12-18T04:47:33;63.67;;;27.30;;
10641;SDS011;5369;49.586;8.646;2022-12-18T04:49:59;61.80;;;27.37;;
10641;SDS011;5369;49.586;8.646;2022-12-18T04:52:25;63.30;;;26.43;;
10641;SDS011;5369;49.586;8.646;2022-12-18T04:54:52;73.67;;;29.27;;
10641;SDS011;5369;49.586;8.646;2022-12-18T04:57:18;65.27;;;28.40;;
10641;SDS011;5369;49.586;8.646;2022-12-18T04:59:44;65.07;;;29.07;;
10641;SDS011;5369;49.586;8.646;2022-12-18T05:02:10;65.53;;;28.03;;
10641;SDS011;5369;49.586;8.646;2022-12-18T05:04:37;61.63;;;26.03;;
10641;SDS011;5369;49.586;8.646;2022-12-18T05:07:03;62.07;;;27.33;;
10641;SDS011;5369;49.586;8.646;2022-12-18T05:09:29;61.77;;;26.53;;
10641;SDS011;5369;49.586;8.646;2022-12-18T05:11:56;59.53;;;27.27;;
10641;SDS011;5369;49.586;8.646;2022-12-18T05:14:22;68.13;;;28.63;;
10641;SDS011;5369;49.586;8.646;2022-12-18T05:16:48;61.80;;;26.43;;
10641;SDS011;5369;49.586;8.646;2022-12-18T05:19:15;64.33;;;26.97;;
10641;SDS011;5369;49.586;8.646;2022-12-18T05:21:41;66.37;;;27.80;;
10641;SDS011;5369;49.586;8.646;2022-12-18T05:24:07;64.90;;;27.47;;
10641;SDS011;5369;49.586;8.646;2022-12-18T05:26:33;75.57;;;29.60;;
10641;SDS011;5369;49.586;8.646;2022-12-18T05:29:00;59.97;;;26.73;;
10641;SDS011;5369;49.586;8.646;2022-12-18T05:31:26;62.77;;;26.00;;
10641;SDS011;5369;49.586;8.646;2022-12-18T05:33:52;68.53;;;27.73;;
10641;SDS011;5369;49.586;8.646;2022-12-18T05:36:19;56.97;;;26.40;;
10641;SDS011;5369;49.586;8.646;2022-12-18T05:38:45;60.47;;;27.10;;
10641;SDS011;5369;49.586;8.646;2022-12-18T05:41:11;57.23;;;26.10;;
10641;SDS011;5369;49.586;8.646;2022-12-18T05:43:40;56.57;;;25.43;;
10641;SDS011;5369;49.586;8.646;2022-12-18T05:46:07;57.50;;;25.93;;
10641;SDS011;5369;49.586;8.646;2022-12-18T05:48:33;57.53;;;26.17;;
10641;SDS011;5369;49.586;8.646;2022-12-18T05:51:32;58.20;;;26.23;;
10641;SDS011;5369;49.586;8.646;2022-12-18T05:53:52;58.77;;;25.93;;
10641;SDS011;5369;49.586;8.646;2022-12-18T05:56:20;61.37;;;27.67;;
10641;SDS011;5369;49.586;8.646;2022-12-18T05:58:47;56.80;;;25.43;;
10641;SDS011;5369;49.586;8.646;2022-12-18T06:01:14;55.50;;;25.27;;
10641;SDS011;5369;49.586;8.646;2022-12-18T06:03:41;59.30;;;26.53;;
10641;SDS011;5369;49.586;8.646;2022-12-18T06:06:17;62.07;;;26.47;;
10641;SDS011;5369;49.586;8.646;2022-12-18T06:08:44;57.40;;;26.27;;
10641;SDS011;5369;49.586;8.646;2022-12-18T06:11:10;60.17;;;27.17;;
10641;SDS011;5369;49.586;8.646;2022-12-18T06:13:37;67.83;;;27.13;;
10641;SDS011;5369;49.586;8.646;2022-12-18T06:16:06;59.83;;;25.97;;
10641;SDS011;5369;49.586;8.646;2022-12-18T06:18:33;64.93;;;27.87;;
10641;SDS011;5369;49.586;8.646;2022-12-18T06:21:02;72.07;;;29.97;;
10641;SDS011;5369;49.586;8.646;2022-12-18T06:23:28;66.13;;;27.53;;
10641;SDS011;5369;49.586;8.646;2022-12-18T06:25:54;64.97;;;28.03;;
10641;SDS011;5369;49.586;8.646;2022-12-18T06:28:21;68.27;;;29.43;;
10641;SDS011;5369;49.586;8.646;2022-12-18T06:30:47;64.87;;;28.27;;
10641;SDS011;5369;49.586;8.646;2022-12-18T06:33:14;67.73;;;27.80;;
10641;SDS011;5369;49.586;8.646;2022-12-18T06:35:40;68.17;;;28.80;;
10641;SDS011;5369;49.586;8.646;2022-12-18T06:38:07;57.80;;;26.33;;
10641;SDS011;5369;49.586;8.646;2022-12-18T06:40:33;64.60;;;27.93;;
10641;SDS011;5369;49.586;8.646;2022-12-18T06:42:59;62.23;;;26.13;;
10641;SDS011;5369;49.586;8.646;2022-12-18T06:45:26;61.87;;;26.87;;
10641;SDS011;5369;49.586;8.646;2022-12-18T06:47:52;66.80;;;26.77;;
10641;SDS011;5369;49.586;8.646;2022-12-18T06:50:18;66.37;;;27.60;;
10641;SDS011;5369;49.586;8.646;2022-12-18T06:52:44;68.47;;;30.50;;
10641;SDS011;5369;49.586;8.646;2022-12-18T06:55:10;67.50;;;29.40;;
10641;SDS011;5369;49.586;8.646;2022-12-18T06:57:37;74.35;;;37.15;;
10641;SDS011;5369;49.586;8.646;2022-12-18T07:00:04;70.37;;;31.77;;
10641;SDS011;5369;49.586;8.646;2022-12-18T07:02:31;68.07;;;29.10;;
10641;SDS011;5369;49.586;8.646;2022-12-18T07:04:57;67.10;;;33.17;;
10641;SDS011;5369;49.586;8.646;2022-12-18T07:07:24;66.43;;;30.43;;
10641;SDS011;5369;49.586;8.646;2022-12-18T07:09:50;74.93;;;30.00;;
10641;SDS011;5369;49.586;8.646;2022-12-18T07:12:17;84.00;;;29.97;;
10641;SDS011;5369;49.586;8.646;2022-12-18T07:14:43;64.03;;;26.40;;
10641;SDS011;5369;49.586;8.646;2022-12-18T07:17:09;69.47;;;27.37;;
10641;SDS011;5369;49.586;8.646;2022-12-18T07:19:35;62.63;;;27.00;;
10641;SDS011;5369;49.586;8.646;2022-12-18T07:22:01;64.03;;;28.90;;
10641;SDS011;5369;49.586;8.646;2022-12-18T07:24:28;70.13;;;28.43;;
10641;SDS011;5369;49.586;8.646;2022-12-18T07:26:54;83.30;;;31.50;;
10641;SDS011;5369;49.586;8.646;2022-12-18T07:29:20;71.03;;;28.60;;
10641;SDS011;5369;49.586;8.646;2022-12-18T07:31:46;70.13;;;28.53;;
10641;SDS011;5369;49.586;8.646;2022-12-18T07:34:13;78.73;;;30.37;;
10641;SDS011;5369;49.586;8.646;2022-12-18T07:36:40;63.63;;;27.23;;
10641;SDS011;5369;49.586;8.646;2022-12-18T07:39:06;60.67;;;26.57;;
10641;SDS011;5369;49.586;8.646;2022-12-18T07:41:33;57.63;;;26.13;;
10641;SDS011;5369;49.586;8.646;2022-12-18T07:44:09;67.10;;;28.20;;
10641;SDS011;5369;49.586;8.646;2022-12-18T07:46:35;62.27;;;27.03;;
10641;SDS011;5369;49.586;8.646;2022-12-18T07:49:01;62.57;;;27.73;;
10641;SDS011;5369;49.586;8.646;2022-12-18T07:51:28;65.13;;;28.70;;
10641;SDS011;5369;49.586;8.646;2022-12-18T07:53:54;64.70;;;27.43;;
10641;SDS011;5369;49.586;8.646;2022-12-18T07:56:20;69.23;;;28.97;;
10641;SDS011;5369;49.586;8.646;2022-12-18T07:58:46;63.13;;;27.67;;
10641;SDS011;5369;49.586;8.646;2022-12-18T08:01:12;55.77;;;26.30;;
10641;SDS011;5369;49.586;8.646;2022-12-18T08:03:39;63.60;;;28.03;;
10641;SDS011;5369;49.586;8.646;2022-12-18T08:06:06;62.03;;;27.17;;
10641;SDS011;5369;49.586;8.646;2022-12-18T08:08:33;62.40;;;26.43;;
10641;SDS011;5369;49.586;8.646;2022-12-18T08:11:00;61.03;;;27.63;;
10641;SDS011;5369;49.586;8.646;2022-12-18T08:13:26;67.33;;;28.43;;
10641;SDS011;5369;49.586;8.646;2022-12-18T08:15:56;64.20;;;29.20;;
10641;SDS011;5369;49.586;8.646;2022-12-18T08:18:22;61.03;;;27.60;;
10641;SDS011;5369;49.586;8.646;2022-12-18T08:20:48;64.00;;;28.73;;
10641;SDS011;5369;49.586;8.646;2022-12-18T08:23:15;65.50;;;28.67;;
10641;SDS011;5369;49.586;8.646;2022-12-18T08:25:41;63.87;;;28.90;;
10641;SDS011;5369;49.586;8.646;2022-12-18T08:28:07;64.80;;;29.77;;
10641;SDS011;5369;49.586;8.646;2022-12-18T08:30:33;66.27;;;29.33;;
10641;SDS011;5369;49.586;8.646;2022-12-18T08:32:59;66.97;;;30.20;;
10641;SDS011;5369;49.586;8.646;2022-12-18T08:35:28;66.27;;;29.30;;
10641;SDS011;5369;49.586;8.646;2022-12-18T08:37:54;61.63;;;27.17;;
10641;SDS011;5369;49.586;8.646;2022-12-18T08:40:20;63.37;;;29.70;;
10641;SDS011;5369;49.586;8.646;2022-12-18T08:42:47;70.27;;;29.00;;
10641;SDS011;5369;49.586;8.646;2022-12-18T08:45:32;72.67;;;31.17;;
10641;SDS011;5369;49.586;8.646;2022-12-18T08:47:59;65.00;;;28.47;;
10641;SDS011;5369;49.586;8.646;2022-12-18T08:50:25;77.00;;;31.63;;
10641;SDS011;5369;49.586;8.646;2022-12-18T08:52:51;68.70;;;30.13;;
10641;SDS011;5369;49.586;8.646;2022-12-18T08:55:18;68.57;;;30.90;;
10641;SDS011;5369;49.586;8.646;2022-12-18T08:57:47;70.10;;;30.23;;
10641;SDS011;5369;49.586;8.646;2022-12-18T09:00:14;67.73;;;30.87;;
10641;SDS011;5369;49.586;8.646;2022-12-18T09:02:40;68.23;;;30.20;;
10641;SDS011;5369;49.586;8.646;2022-12-18T09:05:06;61.60;;;29.23;;
10641;SDS011;5369;49.586;8.646;2022-12-18T09:07:33;68.70;;;32.60;;
10641;SDS011;5369;49.586;8.646;2022-12-18T09:09:59;69.37;;;30.90;;
10641;SDS011;5369;49.586;8.646;2022-12-18T09:12:26;62.30;;;30.33;;
10641;SDS011;5369;49.586;8.646;2022-12-18T09:14:52;70.53;;;31.47;;
10641;SDS011;5369;49.586;8.646;2022-12-18T09:17:18;66.10;;;30.37;;
10641;SDS011;5369;49.586;8.646;2022-12-18T09:19:44;63.00;;;27.83;;
10641;SDS011;5369;49.586;8.646;2022-12-18T09:22:10;59.07;;;28.50;;
10641;SDS011;5369;49.586;8.646;2022-12-18T09:24:36;64.73;;;30.63;;
10641;SDS011;5369;49.586;8.646;2022-12-18T09:27:03;67.93;;;28.77;;
10641;SDS011;5369;49.586;8.646;2022-12-18T09:29:29;65.13;;;29.97;;
10641;SDS011;5369;49.586;8.646;2022-12-18T09:31:55;65.23;;;29.43;;
10641;SDS011;5369;49.586;8.646;2022-12-18T09:34:21;63.50;;;30.30;;
10641;SDS011;5369;49.586;8.646;2022-12-18T09:36:48;68.23;;;30.97;;
10641;SDS011;5369;49.586;8.646;2022-12-18T09:39:14;65.53;;;30.83;;
10641;SDS011;5369;49.586;8.646;2022-12-18T09:41:41;66.97;;;30.80;;
10641;SDS011;5369;49.586;8.646;2022-12-18T09:47:18;58.90;;;27.93;;
10641;SDS011;5369;49.586;8.646;2022-12-18T09:49:46;62.83;;;29.97;;
10641;SDS011;5369;49.586;8.646;2022-12-18T09:54:43;61.50;;;29.23;;
10641;SDS011;5369;49.586;8.646;2022-12-18T09:57:17;61.53;;;28.07;;
10641;SDS011;5369;49.586;8.646;2022-12-18T10:00:27;64.00;;;29.73;;
10641;SDS011;5369;49.586;8.646;2022-12-18T10:02:36;60.37;;;30.87;;
10641;SDS011;5369;49.586;8.646;2022-12-18T10:05:06;61.57;;;29.37;;
10641;SDS011;5369;49.586;8.646;2022-12-18T10:07:36;68.87;;;30.47;;
10641;SDS011;5369;49.586;8.646;2022-12-18T10:10:07;66.53;;;30.87;;
10641;SDS011;5369;49.586;8.646;2022-12-18T10:12:43;68.77;;;29.57;;
10641;SDS011;5369;49.586;8.646;2022-12-18T10:15:14;66.60;;;31.00;;
10641;SDS011;5369;49.586;8.646;2022-12-18T10:17:58;63.03;;;29.37;;
10641;SDS011;5369;49.586;8.646;2022-12-18T10:20:29;67.20;;;32.33;;
10641;SDS011;5369;49.586;8.646;2022-12-18T10:28:13;69.60;;;32.10;;
10641;SDS011;5369;49.586;8.646;2022-12-18T10:30:40;68.20;;;31.80;;
10641;SDS011;5369;49.586;8.646;2022-12-18T10:33:09;71.13;;;33.27;;
10641;SDS011;5369;49.586;8.646;2022-12-18T10:35:37;68.53;;;31.47;;
10641;SDS011;5369;49.586;8.646;2022-12-18T10:38:07;62.83;;;31.73;;
10641;SDS011;5369;49.586;8.646;2022-12-18T10:40:48;64.10;;;31.30;;
10641;SDS011;5369;49.586;8.646;2022-12-18T10:43:15;68.87;;;32.30;;
10641;SDS011;5369;49.586;8.646;2022-12-18T10:45:41;64.43;;;30.67;;
10641;SDS011;5369;49.586;8.646;2022-12-18T10:48:26;56.60;;;27.90;;
10641;SDS011;5369;49.586;8.646;2022-12-18T10:50:52;68.37;;;30.83;;
10641;SDS011;5369;49.586;8.646;2022-12-18T10:53:20;59.87;;;28.47;;
10641;SDS011;5369;49.586;8.646;2022-12-18T10:55:48;67.70;;;30.70;;
10641;SDS011;5369;49.586;8.646;2022-12-18T10:58:25;65.23;;;31.80;;
10641;SDS011;5369;49.586;8.646;2022-12-18T11:06:17;64.90;;;31.00;;
10641;SDS011;5369;49.586;8.646;2022-12-18T11:08:57;59.70;;;29.30;;
10641;SDS011;5369;49.586;8.646;2022-12-18T11:11:23;65.07;;;29.90;;
10641;SDS011;5369;49.586;8.646;2022-12-18T11:14:01;65.20;;;30.97;;
10641;SDS011;5369;49.586;8.646;2022-12-18T11:16:29;57.90;;;28.17;;
10641;SDS011;5369;49.586;8.646;2022-12-18T11:19:07;63.83;;;30.97;;
10641;SDS011;5369;49.586;8.646;2022-12-18T11:21:40;60.23;;;28.70;;
10641;SDS011;5369;49.586;8.646;2022-12-18T11:24:13;69.20;;;31.87;;
10641;SDS011;5369;49.586;8.646;2022-12-18T11:26:43;64.47;;;31.50;;
10641;SDS011;5369;49.586;8.646;2022-12-18T11:29:12;60.17;;;30.23;;
10641;SDS011;5369;49.586;8.646;2022-12-18T11:31:42;59.93;;;29.80;;
10641;SDS011;5369;49.586;8.646;2022-12-18T11:34:13;56.30;;;28.83;;
10641;SDS011;5369;49.586;8.646;2022-12-18T11:36:46;59.43;;;29.27;;
10641;SDS011;5369;49.586;8.646;2022-12-18T11:50:02;64.60;;;30.33;;
10641;SDS011;5369;49.586;8.646;2022-12-18T11:52:39;63.43;;;31.50;;
10641;SDS011;5369;49.586;8.646;2022-12-18T11:55:15;65.97;;;31.23;;
10641;SDS011;5369;49.586;8.646;2022-12-18T12:00:18;67.03;;;31.83;;
10641;SDS011;5369;49.586;8.646;2022-12-18T12:13:14;65.73;;;32.27;;
10641;SDS011;5369;49.586;8.646;2022-12-18T12:18:28;69.00;;;33.93;;
10641;SDS011;5369;49.586;8.646;2022-12-18T12:26:03;62.67;;;31.97;;
10641;SDS011;5369;49.586;8.646;2022-12-18T12:28:39;65.13;;;32.67;;
10641;SDS011;5369;49.586;8.646;2022-12-18T12:36:21;69.87;;;36.40;;
10641;SDS011;5369;49.586;8.646;2022-12-18T12:38:51;70.37;;;35.37;;
10641;SDS011;5369;49.586;8.646;2022-12-18T12:41:20;74.80;;;35.87;;
10641;SDS011;5369;49.586;8.646;2022-12-18T12:44:08;68.10;;;33.07;;
10641;SDS011;5369;49.586;8.646;2022-12-18T12:46:36;68.33;;;32.67;;
10641;SDS011;5369;49.586;8.646;2022-12-18T12:49:04;65.97;;;33.17;;
10641;SDS011;5369;49.586;8.646;2022-12-18T12:51:37;63.33;;;32.67;;
10641;SDS011;5369;49.586;8.646;2022-12-18T12:54:05;61.20;;;32.97;;
10641;SDS011;5369;49.586;8.646;2022-12-18T12:56:54;63.23;;;32.37;;
10641;SDS011;5369;49.586;8.646;2022-12-18T12:59:45;68.73;;;33.70;;
10641;SDS011;5369;49.586;8.646;2022-12-18T13:02:17;68.20;;;34.33;;
10641;SDS011;5369;49.586;8.646;2022-12-18T13:04:48;67.50;;;33.97;;
10641;SDS011;5369;49.586;8.646;2022-12-18T13:07:16;61.33;;;32.47;;
10641;SDS011;5369;49.586;8.646;2022-12-18T13:12:29;71.47;;;34.73;;
10641;SDS011;5369;49.586;8.646;2022-12-18T13:20:36;73.30;;;36.20;;
10641;SDS011;5369;49.586;8.646;2022-12-18T13:25:48;70.27;;;35.37;;
10641;SDS011;5369;49.586;8.646;2022-12-18T13:28:16;64.77;;;34.90;;
10641;SDS011;5369;49.586;8.646;2022-12-18T13:38:22;68.57;;;36.50;;
10641;SDS011;5369;49.586;8.646;2022-12-18T13:43:20;64.93;;;34.50;;
10641;SDS011;5369;49.586;8.646;2022-12-18T13:46:05;64.03;;;34.40;;
10641;SDS011;5369;49.586;8.646;2022-12-18T13:48:36;66.33;;;33.50;;
10641;SDS011;5369;49.586;8.646;2022-12-18T13:51:07;64.43;;;33.73;;
10641;SDS011;5369;49.586;8.646;2022-12-18T13:53:51;60.40;;;32.97;;
10641;SDS011;5369;49.586;8.646;2022-12-18T13:56:20;64.10;;;32.80;;
10641;SDS011;5369;49.586;8.646;2022-12-18T13:59:03;63.47;;;33.33;;
10641;SDS011;5369;49.586;8.646;2022-12-18T14:01:29;64.80;;;33.67;;
10641;SDS011;5369;49.586;8.646;2022-12-18T14:04:08;65.00;;;33.87;;
10641;SDS011;5369;49.586;8.646;2022-12-18T14:06:35;66.37;;;34.10;;
10641;SDS011;5369;49.586;8.646;2022-12-18T14:09:02;57.90;;;31.60;;
10641;SDS011;5369;49.586;8.646;2022-12-18T14:11:28;61.87;;;33.30;;
10641;SDS011;5369;49.586;8.646;2022-12-18T14:13:55;66.30;;;33.67;;
10641;SDS011;5369;49.586;8.646;2022-12-18T14:16:22;64.33;;;34.07;;
10641;SDS011;5369;49.586;8.646;2022-12-18T14:18:52;65.70;;;32.97;;
10641;SDS011;5369;49.586;8.646;2022-12-18T14:21:27;57.40;;;30.73;;
10641;SDS011;5369;49.586;8.646;2022-12-18T14:24:12;70.90;;;34.07;;
10641;SDS011;5369;49.586;8.646;2022-12-18T14:26:39;64.37;;;32.80;;
10641;SDS011;5369;49.586;8.646;2022-12-18T14:29:17;66.10;;;33.90;;
10641;SDS011;5369;49.586;8.646;2022-12-18T14:31:45;63.87;;;32.03;;
10641;SDS011;5369;49.586;8.646;2022-12-18T14:34:17;60.20;;;31.87;;
10641;SDS011;5369;49.586;8.646;2022-12-18T14:36:53;65.90;;;34.63;;
10641;SDS011;5369;49.586;8.646;2022-12-18T14:39:21;63.70;;;32.27;;
10641;SDS011;5369;49.586;8.646;2022-12-18T14:41:49;60.33;;;32.40;;
10641;SDS011;5369;49.586;8.646;2022-12-18T14:44:15;63.47;;;32.70;;
10641;SDS011;5369;49.586;8.646;2022-12-18T14:46:42;66.00;;;34.20;;
10641;SDS011;5369;49.586;8.646;2022-12-18T14:49:18;65.83;;;33.53;;
10641;SDS011;5369;49.586;8.646;2022-12-18T14:51:51;65.90;;;35.50;;
10641;SDS011;5369;49.586;8.646;2022-12-18T14:54:18;62.90;;;35.23;;
10641;SDS011;5369;49.586;8.646;2022-12-18T14:56:51;68.00;;;36.70;;
10641;SDS011;5369;49.586;8.646;2022-12-18T14:59:23;63.97;;;34.10;;
10641;SDS011;5369;49.586;8.646;2022-12-18T15:01:55;74.37;;;36.90;;
10641;SDS011;5369;49.586;8.646;2022-12-18T15:07:06;62.93;;;33.40;;
10641;SDS011;5369;49.586;8.646;2022-12-18T15:09:34;70.07;;;36.10;;
10641;SDS011;5369;49.586;8.646;2022-12-18T15:12:01;60.07;;;33.10;;
10641;SDS011;5369;49.586;8.646;2022-12-18T15:17:05;64.37;;;32.97;;
10641;SDS011;5369;49.586;8.646;2022-12-18T15:19:33;62.07;;;33.13;;
10641;SDS011;5369;49.586;8.646;2022-12-18T15:22:00;61.17;;;31.70;;
10641;SDS011;5369;49.586;8.646;2022-12-18T15:24:30;61.37;;;32.23;;
10641;SDS011;5369;49.586;8.646;2022-12-18T15:26:57;63.70;;;34.07;;
10641;SDS011;5369;49.586;8.646;2022-12-18T15:29:23;61.80;;;32.40;;
10641;SDS011;5369;49.586;8.646;2022-12-18T15:31:58;61.50;;;31.67;;
10641;SDS011;5369;49.586;8.646;2022-12-18T15:34:24;63.03;;;32.80;;
10641;SDS011;5369;49.586;8.646;2022-12-18T15:36:51;69.70;;;37.72;;
10641;SDS011;5369;49.586;8.646;2022-12-18T15:39:17;75.73;;;40.23;;
10641;SDS011;5369;49.586;8.646;2022-12-18T15:41:43;67.43;;;35.60;;
10641;SDS011;5369;49.586;8.646;2022-12-18T15:44:30;76.53;;;39.43;;
10641;SDS011;5369;49.586;8.646;2022-12-18T15:46:56;72.90;;;37.43;;
10641;SDS011;5369;49.586;8.646;2022-12-18T15:49:23;71.93;;;42.63;;
10641;SDS011;5369;49.586;8.646;2022-12-18T15:51:51;72.67;;;39.83;;
10641;SDS011;5369;49.586;8.646;2022-12-18T15:54:18;72.67;;;41.10;;
10641;SDS011;5369;49.586;8.646;2022-12-18T15:57:07;87.27;;;44.97;;
10641;SDS011;5369;49.586;8.646;2022-12-18T15:59:49;89.67;;;45.47;;
10641;SDS011;5369;49.586;8.646;2022-12-18T16:02:18;87.73;;;42.97;;
10641;SDS011;5369;49.586;8.646;2022-12-18T16:04:44;81.53;;;41.87;;
10641;SDS011;5369;49.586;8.646;2022-12-18T16:07:14;100.60;;;48.33;;
10641;SDS011;5369;49.586;8.646;2022-12-18T16:09:40;81.17;;;43.33;;
10641;SDS011;5369;49.586;8.646;2022-12-18T16:12:11;86.83;;;44.10;;
10641;SDS011;5369;49.586;8.646;2022-12-18T16:14:40;83.47;;;49.47;;
10641;SDS011;5369;49.586;8.646;2022-12-18T16:17:09;82.63;;;43.50;;
10641;SDS011;5369;49.586;8.646;2022-12-18T16:19:35;77.03;;;40.30;;
10641;SDS011;5369;49.586;8.646;2022-12-18T16:22:02;83.18;;;44.60;;
10641;SDS011;5369;49.586;8.646;2022-12-18T16:24:29;79.50;;;42.30;;
10641;SDS011;5369;49.586;8.646;2022-12-18T16:26:57;85.17;;;41.87;;
10641;SDS011;5369;49.586;8.646;2022-12-18T16:29:54;77.90;;;39.67;;